createdAt,value
2019-05-06T00:00:24.504Z,11.60
2019-05-06T00:01:23.958Z,14.60
2019-05-06T00:02:24.562Z,10.40
2019-05-06T00:03:24.826Z,11.30
2019-05-06T00:04:24.668Z,11.70
2019-05-06T00:05:25.085Z,14.10
2019-05-06T00:06:23.688Z,11.20
2019-05-06T00:07:24.274Z,12.40
2019-05-06T00:08:23.671Z,10.90
2019-05-06T00:09:24.056Z,12.10
2019-05-06T00:10:24.526Z,12.00
2019-05-06T00:11:23.806Z,9.90
2019-05-06T00:12:23.933Z,10.70
2019-05-06T00:13:24.183Z,13.50
2019-05-06T00:14:23.536Z,11.10
2019-05-06T00:15:23.480Z,13.60
2019-05-06T00:16:23.771Z,11.40
2019-05-06T00:17:23.943Z,14.40
2019-05-06T00:18:24.518Z,10.10
2019-05-06T00:19:24.645Z,12.40
2019-05-06T00:20:24.328Z,11.40
2019-05-06T00:21:24.428Z,13.10
2019-05-06T00:22:23.782Z,12.70
2019-05-06T00:23:24.829Z,11.80
2019-05-06T00:24:23.924Z,11.00
2019-05-06T00:25:24.266Z,10.90
2019-05-06T00:26:24.329Z,13.80
2019-05-06T00:27:24.663Z,10.20
2019-05-06T00:28:24.403Z,9.40
2019-05-06T00:29:24.178Z,9.60
2019-05-06T00:30:24.290Z,10.80
2019-05-06T00:31:24.005Z,12.60
2019-05-06T00:32:24.273Z,10.90
2019-05-06T00:33:24.266Z,12.10
2019-05-06T00:34:24.475Z,11.10
2019-05-06T00:35:23.466Z,9.60
2019-05-06T00:36:23.716Z,11.30
2019-05-06T00:37:24.124Z,10.50
2019-05-06T00:38:24.499Z,15.00
2019-05-06T00:39:24.296Z,12.60
2019-05-06T00:40:24.341Z,9.60
2019-05-06T00:41:24.550Z,11.30
2019-05-06T00:42:24.186Z,12.10
2019-05-06T00:43:23.568Z,11.60
2019-05-06T00:44:23.885Z,11.80
2019-05-06T00:45:24.379Z,10.50
2019-05-06T00:46:24.325Z,10.90
2019-05-06T00:47:24.109Z,10.60
2019-05-06T00:48:24.291Z,9.80
2019-05-06T00:49:23.840Z,15.20
2019-05-06T00:50:23.972Z,13.60
2019-05-06T00:51:24.169Z,13.20
2019-05-06T00:52:23.898Z,13.40
2019-05-06T00:53:23.832Z,11.80
2019-05-06T00:54:22.365Z,15.20
2019-05-06T00:55:24.122Z,15.70
2019-05-06T00:56:24.241Z,16.30
2019-05-06T00:57:23.389Z,13.90
2019-05-06T00:58:23.854Z,12.00
2019-05-06T00:59:23.825Z,13.20
2019-05-06T01:00:24.263Z,13.40
2019-05-06T01:01:27.104Z,14.90
2019-05-06T01:02:23.516Z,13.70
2019-05-06T01:03:23.938Z,12.20
2019-05-06T01:04:24.379Z,15.10
2019-05-06T01:05:24.295Z,15.10
2019-05-06T01:06:22.247Z,14.60
2019-05-06T01:07:23.666Z,14.80
2019-05-06T01:08:24.042Z,15.60
2019-05-06T01:09:23.468Z,13.70
2019-05-06T01:10:23.818Z,16.10
2019-05-06T01:11:23.886Z,12.80
2019-05-06T01:12:23.974Z,14.20
2019-05-06T01:13:24.060Z,15.90
2019-05-06T01:14:23.534Z,16.50
2019-05-06T01:15:23.830Z,15.40
2019-05-06T01:16:22.136Z,15.50
2019-05-06T01:17:23.859Z,15.50
2019-05-06T01:18:22.092Z,13.60
2019-05-06T01:19:23.562Z,13.90
2019-05-06T01:20:22.069Z,13.80
2019-05-06T01:21:23.796Z,16.30
2019-05-06T01:22:22.047Z,12.40
2019-05-06T01:23:23.463Z,14.20
2019-05-06T01:24:23.804Z,14.10
2019-05-06T01:25:23.754Z,12.30
2019-05-06T01:26:24.019Z,14.60
2019-05-06T01:27:23.660Z,13.20
2019-05-06T01:28:22.000Z,18.90
2019-05-06T01:29:23.876Z,16.80
2019-05-06T01:30:24.232Z,13.60
2019-05-06T01:31:21.973Z,12.90
2019-05-06T01:32:23.664Z,14.70
2019-05-06T01:33:23.744Z,17.00
2019-05-06T01:34:21.915Z,12.20
2019-05-06T01:35:21.906Z,19.70
2019-05-06T01:36:21.919Z,14.50
2019-05-06T01:37:23.640Z,13.30
2019-05-06T01:38:24.055Z,13.30
2019-05-06T01:39:21.863Z,13.00
2019-05-06T01:40:23.805Z,14.10
2019-05-06T01:41:24.258Z,14.70
2019-05-06T01:42:21.841Z,15.00
2019-05-06T01:43:24.062Z,12.70
2019-05-06T01:44:21.804Z,14.10
2019-05-06T01:45:23.672Z,12.60
2019-05-06T01:46:21.810Z,18.30
2019-05-06T01:47:23.728Z,13.30
2019-05-06T01:48:21.764Z,15.50
2019-05-06T01:49:21.763Z,13.80
2019-05-06T01:50:23.550Z,14.50
2019-05-06T01:51:23.876Z,17.80
2019-05-06T01:52:23.903Z,13.80
2019-05-06T01:53:21.706Z,13.40
2019-05-06T01:54:21.694Z,14.00
2019-05-06T01:55:23.773Z,15.80
2019-05-06T01:56:21.693Z,17.40
2019-05-06T01:57:21.678Z,15.70
2019-05-06T01:58:21.654Z,14.60
2019-05-06T01:59:21.647Z,16.40
2019-05-06T02:00:23.214Z,14.40
2019-05-06T02:01:21.620Z,16.50
2019-05-06T02:02:23.706Z,13.20
2019-05-06T02:03:21.599Z,14.80
2019-05-06T02:04:21.609Z,15.10
2019-05-06T02:05:21.592Z,14.80
2019-05-06T02:06:21.575Z,15.50
2019-05-06T02:07:23.579Z,15.00
2019-05-06T02:08:21.543Z,15.20
2019-05-06T02:09:21.553Z,16.30
2019-05-06T02:10:23.706Z,21.40
2019-05-06T02:11:21.513Z,17.40
2019-05-06T02:12:21.498Z,16.70
2019-05-06T02:13:23.405Z,13.20
2019-05-06T02:14:21.485Z,17.50
2019-05-06T02:15:23.402Z,15.40
2019-05-06T02:16:23.924Z,17.10
2019-05-06T02:17:23.359Z,13.30
2019-05-06T02:18:21.437Z,16.90
2019-05-06T02:19:21.421Z,18.00
2019-05-06T02:20:21.435Z,13.30
2019-05-06T02:21:24.482Z,14.40
2019-05-06T02:22:21.389Z,15.50
2019-05-06T02:23:21.388Z,15.80
2019-05-06T02:24:21.364Z,13.90
2019-05-06T02:25:21.381Z,18.50
2019-05-06T02:26:23.776Z,15.10
2019-05-06T02:27:21.340Z,17.30
2019-05-06T02:28:23.486Z,16.00
2019-05-06T02:29:21.313Z,15.20
2019-05-06T02:30:21.320Z,13.50
2019-05-06T02:31:21.294Z,18.50
2019-05-06T02:32:30.048Z,16.20
2019-05-06T02:33:24.640Z,18.20
2019-05-06T02:34:21.259Z,19.00
2019-05-06T02:35:21.280Z,20.50
2019-05-06T02:36:21.241Z,14.90
2019-05-06T02:37:21.228Z,20.30
2019-05-06T02:38:23.352Z,20.00
2019-05-06T02:39:23.525Z,15.40
2019-05-06T02:40:24.491Z,19.60
2019-05-06T02:41:23.295Z,16.70
2019-05-06T02:42:23.661Z,15.90
2019-05-06T02:43:23.157Z,16.20
2019-05-06T02:44:23.918Z,18.50
2019-05-06T02:45:24.025Z,16.70
2019-05-06T02:46:23.547Z,16.80
2019-05-06T02:47:22.998Z,15.40
2019-05-06T02:48:22.950Z,21.20
2019-05-06T02:49:23.644Z,17.40
2019-05-06T02:50:23.933Z,16.40
2019-05-06T02:51:24.143Z,16.20
2019-05-06T02:52:22.974Z,18.70
2019-05-06T02:53:23.404Z,16.90
2019-05-06T02:54:23.399Z,17.90
2019-05-06T02:55:23.378Z,17.20
2019-05-06T02:56:23.821Z,14.40
2019-05-06T02:57:23.528Z,17.30
2019-05-06T02:58:23.454Z,14.90
2019-05-06T02:59:23.835Z,17.30
2019-05-06T03:00:23.667Z,17.80
2019-05-06T03:01:23.395Z,17.80
2019-05-06T03:02:37.911Z,17.40
2019-05-06T03:03:23.266Z,18.40
2019-05-06T03:04:23.432Z,19.50
2019-05-06T03:05:23.485Z,19.80
2019-05-06T03:06:23.539Z,18.70
2019-05-06T03:07:23.336Z,17.30
2019-05-06T03:08:23.499Z,18.00
2019-05-06T03:09:23.228Z,15.10
2019-05-06T03:10:24.373Z,15.10
2019-05-06T03:11:23.744Z,18.60
2019-05-06T03:12:22.831Z,18.00
2019-05-06T03:13:23.628Z,18.40
2019-05-06T03:14:23.378Z,19.20
2019-05-06T03:15:24.033Z,19.90
2019-05-06T03:16:23.505Z,19.70
2019-05-06T03:17:23.323Z,17.30
2019-05-06T03:18:23.302Z,14.10
2019-05-06T03:19:23.787Z,17.50
2019-05-06T03:20:23.576Z,18.80
2019-05-06T03:21:20.757Z,16.90
2019-05-06T03:22:24.065Z,14.90
2019-05-06T03:23:23.710Z,18.00
2019-05-06T03:24:23.438Z,22.70
2019-05-06T03:25:23.908Z,21.40
2019-05-06T03:26:23.407Z,22.10
2019-05-06T03:27:23.361Z,18.20
2019-05-06T03:28:22.592Z,17.90
2019-05-06T03:29:20.685Z,22.30
2019-05-06T03:30:25.001Z,20.10
2019-05-06T03:31:25.964Z,20.60
2019-05-06T03:32:24.807Z,20.90
2019-05-06T03:33:44.500Z,19.90
2019-05-06T03:34:38.307Z,15.70
2019-05-06T03:35:40.471Z,19.70
2019-05-06T03:36:27.160Z,18.90
2019-05-06T03:37:23.840Z,15.30
2019-05-06T03:38:22.915Z,18.10
2019-05-06T03:39:23.189Z,17.00
2019-05-06T03:40:23.103Z,16.60
2019-05-06T03:41:26.098Z,20.30
2019-05-06T03:42:23.053Z,20.50
2019-05-06T03:43:23.015Z,20.70
2019-05-06T03:44:23.607Z,16.70
2019-05-06T03:45:23.559Z,18.50
2019-05-06T03:46:23.120Z,20.20
2019-05-06T03:47:23.269Z,20.20
2019-05-06T03:48:23.778Z,18.50
2019-05-06T03:49:20.446Z,18.50
2019-05-06T03:50:20.460Z,18.50
2019-05-06T03:51:23.115Z,17.60
2019-05-06T03:52:22.935Z,20.30
2019-05-06T03:53:23.087Z,16.40
2019-05-06T03:54:23.056Z,18.80
2019-05-06T03:55:23.294Z,15.10
2019-05-06T03:56:23.448Z,19.10
2019-05-06T03:57:22.928Z,18.10
2019-05-06T03:58:23.643Z,18.40
2019-05-06T03:59:23.347Z,17.50
2019-05-06T04:00:23.491Z,17.50
2019-05-06T04:01:20.333Z,17.10
2019-05-06T04:02:20.299Z,19.30
2019-05-06T04:03:24.570Z,20.20
2019-05-06T04:04:23.382Z,17.90
2019-05-06T04:05:20.277Z,20.30
2019-05-06T04:06:20.283Z,16.70
2019-05-06T04:07:23.168Z,17.80
2019-05-06T04:08:21.388Z,20.20
2019-05-06T04:09:20.241Z,20.70
2019-05-06T04:10:22.680Z,18.50
2019-05-06T04:11:22.648Z,16.70
2019-05-06T04:12:23.160Z,18.40
2019-05-06T04:13:20.188Z,19.50
2019-05-06T04:14:20.185Z,21.00
2019-05-06T04:15:23.437Z,17.30
2019-05-06T04:16:23.071Z,18.10
2019-05-06T04:17:20.137Z,16.90
2019-05-06T04:18:20.134Z,18.40
2019-05-06T04:19:20.125Z,17.90
2019-05-06T04:20:23.384Z,22.20
2019-05-06T04:21:23.702Z,18.60
2019-05-06T04:22:23.390Z,20.20
2019-05-06T04:23:23.179Z,18.40
2019-05-06T04:24:22.756Z,21.40
2019-05-06T04:25:23.157Z,19.00
2019-05-06T04:26:20.040Z,22.30
2019-05-06T04:27:22.582Z,20.60
2019-05-06T04:28:20.035Z,19.50
2019-05-06T04:29:20.007Z,19.30
2019-05-06T04:30:20.003Z,18.70
2019-05-06T04:31:22.697Z,18.70
2019-05-06T04:32:23.245Z,18.10
2019-05-06T04:33:19.969Z,16.30
2019-05-06T04:34:22.648Z,17.90
2019-05-06T04:35:22.749Z,19.10
2019-05-06T04:36:19.933Z,16.50
2019-05-06T04:37:19.922Z,19.40
2019-05-06T04:38:23.234Z,19.10
2019-05-06T04:39:19.901Z,19.80
2019-05-06T04:40:19.891Z,18.20
2019-05-06T04:41:23.098Z,19.30
2019-05-06T04:42:23.325Z,19.10
2019-05-06T04:43:23.535Z,18.40
2019-05-06T04:44:23.758Z,20.40
2019-05-06T04:45:23.265Z,24.10
2019-05-06T04:46:19.820Z,19.40
2019-05-06T04:47:19.841Z,18.60
2019-05-06T04:48:19.834Z,20.70
2019-05-06T04:49:19.791Z,20.10
2019-05-06T04:50:19.781Z,16.80
2019-05-06T04:51:19.778Z,18.50
2019-05-06T04:52:22.862Z,17.70
2019-05-06T04:53:26.443Z,15.80
2019-05-06T04:54:26.179Z,21.30
2019-05-06T04:55:22.625Z,20.00
2019-05-06T04:56:19.727Z,18.40
2019-05-06T04:57:19.702Z,20.30
2019-05-06T04:58:23.067Z,19.30
2019-05-06T04:59:19.683Z,21.00
2019-05-06T05:00:19.671Z,19.40
2019-05-06T05:01:22.912Z,22.50
2019-05-06T05:02:19.769Z,17.50
2019-05-06T05:03:22.511Z,21.70
2019-05-06T05:04:27.706Z,20.40
2019-05-06T05:05:23.000Z,19.80
2019-05-06T05:06:19.605Z,20.60
2019-05-06T05:07:22.293Z,19.50
2019-05-06T05:08:19.582Z,23.50
2019-05-06T05:09:19.576Z,20.10
2019-05-06T05:10:19.586Z,17.00
2019-05-06T05:11:19.554Z,19.90
2019-05-06T05:12:19.540Z,22.80
2019-05-06T05:13:19.537Z,18.80
2019-05-06T05:14:24.749Z,21.20
2019-05-06T05:15:22.718Z,21.40
2019-05-06T05:16:19.501Z,20.00
2019-05-06T05:17:19.499Z,22.00
2019-05-06T05:18:19.474Z,19.70
2019-05-06T05:19:19.461Z,17.20
2019-05-06T05:20:19.470Z,21.50
2019-05-06T05:21:19.444Z,19.40
2019-05-06T05:22:19.429Z,20.50
2019-05-06T05:23:19.424Z,20.10
2019-05-06T05:24:19.408Z,23.70
2019-05-06T05:25:19.420Z,24.00
2019-05-06T05:26:19.383Z,19.20
2019-05-06T05:27:19.373Z,22.30
2019-05-06T05:28:19.362Z,19.90
2019-05-06T05:29:19.370Z,23.50
2019-05-06T05:30:19.340Z,23.40
2019-05-06T05:31:19.349Z,21.30
2019-05-06T05:32:19.350Z,20.50
2019-05-06T05:33:19.314Z,17.20
2019-05-06T05:34:19.339Z,20.40
2019-05-06T05:35:19.290Z,21.70
2019-05-06T05:36:19.297Z,20.80
2019-05-06T05:37:19.269Z,25.10
2019-05-06T05:38:19.252Z,23.10
2019-05-06T05:39:19.276Z,21.60
2019-05-06T05:40:19.249Z,23.50
2019-05-06T05:41:19.289Z,21.20
2019-05-06T05:42:19.208Z,16.50
2019-05-06T05:43:19.246Z,20.80
2019-05-06T05:44:19.203Z,18.10
2019-05-06T05:45:19.191Z,20.30
2019-05-06T05:46:19.203Z,17.80
2019-05-06T05:47:19.167Z,24.20
2019-05-06T05:48:19.159Z,19.70
2019-05-06T05:49:21.846Z,18.30
2019-05-06T05:50:19.160Z,24.50
2019-05-06T05:51:19.120Z,20.40
2019-05-06T05:52:19.132Z,20.70
2019-05-06T05:53:19.103Z,20.60
2019-05-06T05:54:19.133Z,20.60
2019-05-06T05:55:19.073Z,22.50
2019-05-06T05:56:19.065Z,20.80
2019-05-06T05:57:19.069Z,20.30
2019-05-06T05:58:19.041Z,20.30
2019-05-06T05:59:19.030Z,23.90
2019-05-06T06:00:19.020Z,18.90
2019-05-06T06:01:19.017Z,15.70
2019-05-06T06:02:19.037Z,19.80
2019-05-06T06:03:18.989Z,19.20
2019-05-06T06:04:18.975Z,23.70
2019-05-06T06:05:18.974Z,23.00
2019-05-06T06:06:18.979Z,25.50
2019-05-06T06:07:18.945Z,27.70
2019-05-06T06:08:18.956Z,24.30
2019-05-06T06:09:18.926Z,22.30
2019-05-06T06:10:18.919Z,24.70
2019-05-06T06:11:18.903Z,22.80
2019-05-06T06:12:18.890Z,19.40
2019-05-06T06:13:18.901Z,23.30
2019-05-06T06:14:18.868Z,21.50
2019-05-06T06:15:18.859Z,23.20
2019-05-06T06:16:18.845Z,24.50
2019-05-06T06:17:18.836Z,24.70
2019-05-06T06:18:18.859Z,20.90
2019-05-06T06:19:18.816Z,21.30
2019-05-06T06:20:18.811Z,18.90
2019-05-06T06:21:24.727Z,20.10
2019-05-06T06:22:19.792Z,21.90
2019-05-06T06:23:18.797Z,18.40
2019-05-06T06:24:18.766Z,22.50
2019-05-06T06:25:18.755Z,20.70
2019-05-06T06:26:18.740Z,23.00
2019-05-06T06:27:18.728Z,23.70
2019-05-06T06:28:18.748Z,20.50
2019-05-06T06:29:18.710Z,21.10
2019-05-06T06:30:18.700Z,24.00
2019-05-06T06:31:18.693Z,21.20
2019-05-06T06:32:18.681Z,21.40
2019-05-06T06:33:18.664Z,21.50
2019-05-06T06:34:18.674Z,19.40
2019-05-06T06:35:19.199Z,18.80
2019-05-06T06:36:18.636Z,23.60
2019-05-06T06:37:18.621Z,19.30
2019-05-06T06:38:18.610Z,22.80
2019-05-06T06:39:18.651Z,20.10
2019-05-06T06:40:18.592Z,22.50
2019-05-06T06:41:18.578Z,18.90
2019-05-06T06:42:18.569Z,21.60
2019-05-06T06:43:18.582Z,18.60
2019-05-06T06:44:18.547Z,20.50
2019-05-06T06:45:18.560Z,23.10
2019-05-06T06:46:18.531Z,19.70
2019-05-06T06:47:18.521Z,23.00
2019-05-06T06:48:18.505Z,21.80
2019-05-06T06:49:18.491Z,18.60
2019-05-06T06:50:18.513Z,22.50
2019-05-06T06:51:18.477Z,24.00
2019-05-06T06:52:18.469Z,22.50
2019-05-06T06:53:18.456Z,22.30
2019-05-06T06:54:18.438Z,21.30
2019-05-06T06:55:18.642Z,23.00
2019-05-06T06:56:18.424Z,23.20
2019-05-06T06:57:18.409Z,19.80
2019-05-06T06:58:18.399Z,22.70
2019-05-06T06:59:18.422Z,22.10
2019-05-06T07:00:18.375Z,22.20
2019-05-06T07:01:18.681Z,21.60
2019-05-06T07:02:18.355Z,19.50
2019-05-06T07:03:18.384Z,26.20
2019-05-06T07:04:18.378Z,21.00
2019-05-06T07:05:25.503Z,21.60
2019-05-06T07:06:19.328Z,23.40
2019-05-06T07:07:18.309Z,24.00
2019-05-06T07:08:32.097Z,21.40
2019-05-06T07:09:19.285Z,18.80
2019-05-06T07:10:18.315Z,21.80
2019-05-06T07:11:18.275Z,22.20
2019-05-06T07:12:18.287Z,22.90
2019-05-06T07:13:18.246Z,22.80
2019-05-06T07:14:18.237Z,23.20
2019-05-06T07:15:18.226Z,23.50
2019-05-06T07:16:20.487Z,21.40
2019-05-06T07:17:18.209Z,18.80
2019-05-06T07:18:18.208Z,19.70
2019-05-06T07:19:18.181Z,24.20
2019-05-06T07:20:18.170Z,19.20
2019-05-06T07:21:18.200Z,21.70
2019-05-06T07:22:18.159Z,23.70
2019-05-06T07:23:18.138Z,21.40
2019-05-06T07:24:18.133Z,17.60
2019-05-06T07:25:18.115Z,20.00
2019-05-06T07:26:18.127Z,21.80
2019-05-06T07:27:18.094Z,19.80
2019-05-06T07:28:18.086Z,17.70
2019-05-06T07:29:23.445Z,21.00
2019-05-06T07:30:19.061Z,21.20
2019-05-06T07:31:22.784Z,20.20
2019-05-06T07:32:19.043Z,19.60
2019-05-06T07:33:18.042Z,23.70
2019-05-06T07:34:18.020Z,17.50
2019-05-06T07:35:18.007Z,16.50
2019-05-06T07:36:20.122Z,22.30
2019-05-06T07:37:18.004Z,21.50
2019-05-06T07:38:17.978Z,17.30
2019-05-06T07:39:18.030Z,23.50
2019-05-06T07:40:17.973Z,19.60
2019-05-06T07:41:17.978Z,18.50
2019-05-06T07:42:17.945Z,16.70
2019-05-06T07:43:17.924Z,18.70
2019-05-06T07:44:17.915Z,24.90
2019-05-06T07:45:17.903Z,19.50
2019-05-06T07:46:17.914Z,23.20
2019-05-06T07:47:17.899Z,18.70
2019-05-06T07:48:17.893Z,19.10
2019-05-06T07:49:17.864Z,20.50
2019-05-06T07:50:17.856Z,21.80
2019-05-06T07:51:17.903Z,16.70
2019-05-06T07:52:17.829Z,15.60
2019-05-06T07:53:17.826Z,19.40
2019-05-06T07:54:17.815Z,21.50
2019-05-06T07:55:17.804Z,19.30
2019-05-06T07:56:17.792Z,19.30
2019-05-06T07:57:17.804Z,18.40
2019-05-06T07:58:17.769Z,21.00
2019-05-06T07:59:17.755Z,14.40
2019-05-06T08:00:17.748Z,18.20
2019-05-06T08:01:17.755Z,18.40
2019-05-06T08:02:17.739Z,16.90
2019-05-06T08:03:17.714Z,17.30
2019-05-06T08:04:17.705Z,16.20
2019-05-06T08:05:17.692Z,17.60
2019-05-06T08:06:17.683Z,12.40
2019-05-06T08:07:17.713Z,15.90
2019-05-06T08:08:17.655Z,13.00
2019-05-06T08:09:17.652Z,14.90
2019-05-06T08:10:17.659Z,14.00
2019-05-06T08:11:17.631Z,15.00
2019-05-06T08:12:17.632Z,10.90
2019-05-06T08:13:17.603Z,11.90
2019-05-06T08:14:17.591Z,12.30
2019-05-06T08:15:17.590Z,10.20
2019-05-06T08:16:17.581Z,12.80
2019-05-06T08:17:17.563Z,9.90
2019-05-06T08:18:17.573Z,13.00
2019-05-06T08:19:17.538Z,10.10
2019-05-06T08:20:17.529Z,8.90
2019-05-06T08:21:17.518Z,11.20
2019-05-06T08:22:17.521Z,9.90
2019-05-06T08:23:17.523Z,13.90
2019-05-06T08:24:17.493Z,11.60
2019-05-06T08:25:17.479Z,12.40
2019-05-06T08:26:18.072Z,13.10
2019-05-06T08:27:17.461Z,12.30
2019-05-06T08:28:17.498Z,13.30
2019-05-06T08:29:17.429Z,11.50
2019-05-06T08:30:17.474Z,12.30
2019-05-06T08:31:17.429Z,11.30
2019-05-06T08:32:17.397Z,10.20
2019-05-06T08:33:17.394Z,9.50
2019-05-06T08:34:17.403Z,12.10
2019-05-06T08:35:17.366Z,10.50
2019-05-06T08:36:17.368Z,10.90
2019-05-06T08:37:17.351Z,12.10
2019-05-06T08:38:17.377Z,11.20
2019-05-06T08:39:17.335Z,13.40
2019-05-06T08:40:17.315Z,14.70
2019-05-06T08:41:17.312Z,10.70
2019-05-06T08:42:17.362Z,13.50
2019-05-06T08:43:17.323Z,9.40
2019-05-06T08:44:17.297Z,12.60
2019-05-06T08:45:17.268Z,10.00
2019-05-06T08:46:17.261Z,11.00
2019-05-06T08:47:17.243Z,11.80
2019-05-06T08:48:17.233Z,10.90
2019-05-06T08:49:17.278Z,10.70
2019-05-06T08:50:17.212Z,10.90
2019-05-06T08:51:17.210Z,10.60
2019-05-06T08:52:17.219Z,8.30
2019-05-06T08:53:17.175Z,9.90
2019-05-06T08:54:17.194Z,11.20
2019-05-06T08:55:17.151Z,13.10
2019-05-06T08:56:17.148Z,11.50
2019-05-06T08:57:17.138Z,13.40
2019-05-06T08:58:17.137Z,11.70
2019-05-06T08:59:17.128Z,15.90
2019-05-06T09:00:17.107Z,13.60
2019-05-06T09:01:17.092Z,11.90
2019-05-06T09:02:17.079Z,12.00
2019-05-06T09:03:17.104Z,15.30
2019-05-06T09:04:17.088Z,9.90
2019-05-06T09:05:17.059Z,15.30
2019-05-06T09:06:29.764Z,11.30
2019-05-06T09:07:18.051Z,15.30
2019-05-06T09:08:17.021Z,15.40
2019-05-06T09:09:17.039Z,17.40
2019-05-06T09:10:17.001Z,14.60
2019-05-06T09:11:16.985Z,20.40
2019-05-06T09:12:16.970Z,14.80
2019-05-06T09:13:16.978Z,11.40
2019-05-06T09:14:17.725Z,17.10
2019-05-06T09:15:16.937Z,14.50
2019-05-06T09:16:16.934Z,14.50
2019-05-06T09:17:16.923Z,15.80
2019-05-06T09:18:16.908Z,16.10
2019-05-06T09:19:16.901Z,16.70
2019-05-06T09:20:16.911Z,15.80
2019-05-06T09:21:16.871Z,14.50
2019-05-06T09:22:16.871Z,19.90
2019-05-06T09:23:16.852Z,16.80
2019-05-06T09:24:16.840Z,16.30
2019-05-06T09:25:16.853Z,18.30
2019-05-06T09:26:16.825Z,16.20
2019-05-06T09:27:16.808Z,16.90
2019-05-06T09:28:16.828Z,14.80
2019-05-06T09:29:16.789Z,18.00
2019-05-06T09:30:16.800Z,18.40
2019-05-06T09:31:16.780Z,13.00
2019-05-06T09:32:16.763Z,16.10
2019-05-06T09:33:16.745Z,14.40
2019-05-06T09:34:16.733Z,18.60
2019-05-06T09:35:16.756Z,18.10
2019-05-06T09:36:16.709Z,15.80
2019-05-06T09:37:16.734Z,17.30
2019-05-06T09:38:16.690Z,18.60
2019-05-06T09:39:16.681Z,16.40
2019-05-06T09:40:16.716Z,15.00
2019-05-06T09:41:16.659Z,14.30
2019-05-06T09:42:16.670Z,13.80
2019-05-06T09:43:16.639Z,18.40
2019-05-06T09:44:16.634Z,13.20
2019-05-06T09:45:16.631Z,16.50
2019-05-06T09:46:16.629Z,17.30
2019-05-06T09:47:16.597Z,17.30
2019-05-06T09:48:16.590Z,17.40
2019-05-06T09:49:16.574Z,17.00
2019-05-06T09:50:16.570Z,16.60
2019-05-06T09:51:16.569Z,19.60
2019-05-06T09:52:16.542Z,17.40
2019-05-06T09:53:16.531Z,18.70
2019-05-06T09:54:16.519Z,15.30
2019-05-06T09:55:16.511Z,15.60
2019-05-06T09:56:16.527Z,15.10
2019-05-06T09:57:16.487Z,16.30
2019-05-06T09:58:16.480Z,18.30
2019-05-06T09:59:16.468Z,18.30
2019-05-06T10:00:16.457Z,16.70
2019-05-06T10:01:16.493Z,18.00
2019-05-06T10:02:16.433Z,17.60
2019-05-06T10:03:16.421Z,21.90
2019-05-06T10:04:16.412Z,14.40
2019-05-06T10:05:16.399Z,19.00
2019-05-06T10:06:16.405Z,18.20
2019-05-06T10:07:16.399Z,17.80
2019-05-06T10:08:16.373Z,25.30
2019-05-06T10:09:16.693Z,20.20
2019-05-06T10:10:17.881Z,19.90
2019-05-06T10:11:16.336Z,18.20
2019-05-06T10:12:16.392Z,19.50
2019-05-06T10:13:16.307Z,20.20
2019-05-06T10:14:16.308Z,18.00
2019-05-06T10:15:16.307Z,18.10
2019-05-06T10:16:16.282Z,17.70
2019-05-06T10:17:16.311Z,18.60
2019-05-06T10:18:16.258Z,16.90
2019-05-06T10:19:16.252Z,18.80
2019-05-06T10:20:16.249Z,17.40
2019-05-06T10:21:16.224Z,16.80
2019-05-06T10:22:16.221Z,16.70
2019-05-06T10:23:16.239Z,16.50
2019-05-06T10:24:16.213Z,16.30
2019-05-06T10:25:16.187Z,15.50
2019-05-06T10:26:16.180Z,16.30
2019-05-06T10:27:16.188Z,14.90
2019-05-06T10:28:16.155Z,19.40
2019-05-06T10:29:16.712Z,18.00
2019-05-06T10:30:16.127Z,15.60
2019-05-06T10:31:16.121Z,19.90
2019-05-06T10:32:16.136Z,16.60
2019-05-06T10:33:16.103Z,11.60
2019-05-06T10:34:16.146Z,15.60
2019-05-06T10:35:16.077Z,16.60
2019-05-06T10:36:16.063Z,14.80
2019-05-06T10:37:19.095Z,18.00
2019-05-06T10:38:16.122Z,16.20
2019-05-06T10:39:16.033Z,14.10
2019-05-06T10:40:16.041Z,13.50
2019-05-06T10:41:16.010Z,15.30
2019-05-06T10:42:16.003Z,18.00
2019-05-06T10:43:16.025Z,14.10
2019-05-06T10:44:15.982Z,16.10
2019-05-06T10:45:15.994Z,15.50
2019-05-06T10:46:15.953Z,18.70
2019-05-06T10:47:15.964Z,14.30
2019-05-06T10:48:15.938Z,15.90
2019-05-06T10:49:15.954Z,17.00
2019-05-06T10:50:15.921Z,18.00
2019-05-06T10:51:17.069Z,15.70
2019-05-06T10:52:15.891Z,16.20
2019-05-06T10:53:15.901Z,18.70
2019-05-06T10:54:15.897Z,15.50
2019-05-06T10:55:15.858Z,15.80
2019-05-06T10:56:15.848Z,18.00
2019-05-06T10:57:15.861Z,17.20
2019-05-06T10:58:15.825Z,14.60
2019-05-06T10:59:15.842Z,12.60
2019-05-06T11:00:15.806Z,13.50
2019-05-06T11:01:15.814Z,11.30
2019-05-06T11:02:15.782Z,14.40
2019-05-06T11:03:15.774Z,17.50
2019-05-06T11:04:16.760Z,14.60
2019-05-06T11:05:15.758Z,15.10
2019-05-06T11:06:15.745Z,13.90
2019-05-06T11:07:28.252Z,12.70
2019-05-06T11:08:16.723Z,16.50
2019-05-06T11:09:16.513Z,14.20
2019-05-06T11:10:23.991Z,13.90
2019-05-06T11:11:31.329Z,14.70
2019-05-06T11:12:16.719Z,13.90
2019-05-06T11:13:15.671Z,16.00
2019-05-06T11:14:15.676Z,14.10
2019-05-06T11:15:15.668Z,16.30
2019-05-06T11:16:16.984Z,14.20
2019-05-06T11:17:15.637Z,14.30
2019-05-06T11:18:15.654Z,12.20
2019-05-06T11:19:15.606Z,13.20
2019-05-06T11:20:15.614Z,13.20
2019-05-06T11:21:15.582Z,12.90
2019-05-06T11:22:15.569Z,11.60
2019-05-06T11:23:15.569Z,14.90
2019-05-06T11:24:15.545Z,12.40
2019-05-06T11:25:15.558Z,12.10
2019-05-06T11:26:15.788Z,11.90
2019-05-06T11:27:27.480Z,12.30
2019-05-06T11:28:16.502Z,11.80
2019-05-06T11:29:15.495Z,12.30
2019-05-06T11:30:15.483Z,11.20
2019-05-06T11:31:15.487Z,13.00
2019-05-06T11:32:15.461Z,13.00
2019-05-06T11:33:15.488Z,14.20
2019-05-06T11:34:15.453Z,16.50
2019-05-06T11:35:15.436Z,13.20
2019-05-06T11:36:15.461Z,13.40
2019-05-06T11:37:15.409Z,14.70
2019-05-06T11:38:15.397Z,11.30
2019-05-06T11:39:15.387Z,13.80
2019-05-06T11:40:16.991Z,14.20
2019-05-06T11:41:15.369Z,16.10
2019-05-06T11:42:27.993Z,12.70
2019-05-06T11:43:16.339Z,13.80
2019-05-06T11:44:15.335Z,11.80
2019-05-06T11:45:15.322Z,13.70
2019-05-06T11:46:15.315Z,14.10
2019-05-06T11:47:15.321Z,13.60
2019-05-06T11:48:15.295Z,12.60
2019-05-06T11:49:15.279Z,11.60
2019-05-06T11:50:15.269Z,12.40
2019-05-06T11:51:15.254Z,12.70
2019-05-06T11:52:15.292Z,12.10
2019-05-06T11:53:15.248Z,11.50
2019-05-06T11:54:20.793Z,11.60
2019-05-06T11:55:27.789Z,12.80
2019-05-06T11:56:16.200Z,11.60
2019-05-06T11:57:15.188Z,10.30
2019-05-06T11:58:15.208Z,10.10
2019-05-06T11:59:15.168Z,10.90
2019-05-06T12:00:15.160Z,9.50
2019-05-06T12:01:15.154Z,9.80
2019-05-06T12:02:15.144Z,12.40
2019-05-06T12:03:15.147Z,14.80
2019-05-06T12:04:15.111Z,12.20
2019-05-06T12:05:15.106Z,11.80
2019-05-06T12:06:15.098Z,16.10
2019-05-06T12:07:16.157Z,9.80
2019-05-06T12:08:15.812Z,10.70
2019-05-06T12:09:16.928Z,12.10
2019-05-06T12:10:15.051Z,10.40
2019-05-06T12:11:15.046Z,12.80
2019-05-06T12:12:15.043Z,12.60
2019-05-06T12:13:15.022Z,12.40
2019-05-06T12:14:15.060Z,12.60
2019-05-06T12:15:14.994Z,10.80
2019-05-06T12:16:14.993Z,11.20
2019-05-06T12:17:14.978Z,10.20
2019-05-06T12:18:15.002Z,10.90
2019-05-06T12:19:14.988Z,12.10
2019-05-06T12:20:14.944Z,9.30
2019-05-06T12:21:19.059Z,11.70
2019-05-06T12:22:14.940Z,11.30
2019-05-06T12:23:15.708Z,8.90
2019-05-06T12:24:14.928Z,10.90
2019-05-06T12:25:15.633Z,10.30
2019-05-06T12:26:14.880Z,11.50
2019-05-06T12:27:14.882Z,9.60
2019-05-06T12:28:17.540Z,9.50
2019-05-06T12:29:14.879Z,9.80
2019-05-06T12:30:14.841Z,11.50
2019-05-06T12:31:14.831Z,11.70
2019-05-06T12:32:14.830Z,15.20
2019-05-06T12:33:14.806Z,10.20
2019-05-06T12:34:14.848Z,10.70
2019-05-06T12:35:14.816Z,12.70
2019-05-06T12:36:14.771Z,11.20
2019-05-06T12:37:14.808Z,10.50
2019-05-06T12:38:26.776Z,10.90
2019-05-06T12:39:18.537Z,11.00
2019-05-06T12:40:14.750Z,12.10
2019-05-06T12:41:14.738Z,11.90
2019-05-06T12:42:14.727Z,13.00
2019-05-06T12:43:14.705Z,14.00
2019-05-06T12:44:14.689Z,11.50
2019-05-06T12:45:14.705Z,13.40
2019-05-06T12:46:14.666Z,12.80
2019-05-06T12:47:14.659Z,11.50
2019-05-06T12:48:14.673Z,13.00
2019-05-06T12:49:14.633Z,12.80
2019-05-06T12:50:14.621Z,10.10
2019-05-06T12:51:14.642Z,12.60
2019-05-06T12:52:14.599Z,12.90
2019-05-06T12:53:14.599Z,11.30